sensor_id;sensor_type;location;lat;lon;timestamp;pressure;altitude;pressure_sealevel;temperature;humidity
32243;BME280;18731;42.830;24.390;2024-02-23T00:01:39;94195.69;;;4.99;73.61
32243;BME280;18731;42.830;24.390;2024-02-23T00:04:04;94187.91;;;4.80;74.28
32243;BME280;18731;42.830;24.390;2024-02-23T00:06:32;94188.59;;;4.86;73.49
32243;BME280;18731;42.830;24.390;2024-02-23T00:08:58;94182.09;;;4.92;73.63
32243;BME280;18731;42.830;24.390;2024-02-23T00:11:23;94186.19;;;4.98;72.77
32243;BME280;18731;42.830;24.390;2024-02-23T00:13:49;94175.63;;;4.98;74.12
32243;BME280;18731;42.830;24.390;2024-02-23T00:16:14;94168.59;;;4.94;73.74
32243;BME280;18731;42.830;24.390;2024-02-23T00:18:40;94171.88;;;4.77;74.74
32243;BME280;18731;42.830;24.390;2024-02-23T00:21:06;94174.47;;;4.91;73.36
32243;BME280;18731;42.830;24.390;2024-02-23T00:23:31;94172.00;;;4.94;73.37
32243;BME280;18731;42.830;24.390;2024-02-23T00:25:57;94177.06;;;5.04;73.11
32243;BME280;18731;42.830;24.390;2024-02-23T00:28:22;94173.16;;;5.02;73.62
32243;BME280;18731;42.830;24.390;2024-02-23T00:30:48;94169.25;;;4.99;73.07
32243;BME280;18731;42.830;24.390;2024-02-23T00:33:13;94164.91;;;5.03;73.11
32243;BME280;18731;42.830;24.390;2024-02-23T00:35:39;94174.41;;;5.04;73.49
32243;BME280;18731;42.830;24.390;2024-02-23T00:38:04;94132.69;;;4.79;73.11
32243;BME280;18731;42.830;24.390;2024-02-23T00:40:30;94158.41;;;4.87;73.51
32243;BME280;18731;42.830;24.390;2024-02-23T00:42:55;94164.56;;;4.96;72.97
32243;BME280;18731;42.830;24.390;2024-02-23T00:45:21;94167.50;;;4.95;72.86
32243;BME280;18731;42.830;24.390;2024-02-23T00:47:47;94159.38;;;4.91;73.05
32243;BME280;18731;42.830;24.390;2024-02-23T00:50:13;94140.44;;;4.75;73.65
32243;BME280;18731;42.830;24.390;2024-02-23T00:52:39;94155.66;;;4.92;73.86
32243;BME280;18731;42.830;24.390;2024-02-23T00:55:06;94144.47;;;4.95;73.52
32243;BME280;18731;42.830;24.390;2024-02-23T00:57:34;94152.72;;;4.94;72.80
32243;BME280;18731;42.830;24.390;2024-02-23T01:00:01;94155.84;;;4.96;72.93
32243;BME280;18731;42.830;24.390;2024-02-23T01:02:28;94115.56;;;4.76;72.76
32243;BME280;18731;42.830;24.390;2024-02-23T01:04:54;94154.34;;;5.03;73.42
32243;BME280;18731;42.830;24.390;2024-02-23T01:07:22;94146.41;;;5.03;73.18
32243;BME280;18731;42.830;24.390;2024-02-23T01:09:48;94148.69;;;4.96;73.06
32243;BME280;18731;42.830;24.390;2024-02-23T01:12:13;94145.31;;;5.04;73.14
32243;BME280;18731;42.830;24.390;2024-02-23T01:14:39;94122.47;;;4.86;73.63
32243;BME280;18731;42.830;24.390;2024-02-23T01:17:04;94102.06;;;4.78;72.93
32243;BME280;18731;42.830;24.390;2024-02-23T01:19:30;94126.56;;;4.92;72.77
32243;BME280;18731;42.830;24.390;2024-02-23T01:21:56;94142.81;;;4.99;73.56
32243;BME280;18731;42.830;24.390;2024-02-23T01:24:28;94136.53;;;4.95;73.26
32243;BME280;18731;42.830;24.390;2024-02-23T01:26:55;94136.84;;;4.94;73.36
32243;BME280;18731;42.830;24.390;2024-02-23T01:29:21;94143.88;;;4.98;73.23
32243;BME280;18731;42.830;24.390;2024-02-23T01:31:48;94137.69;;;5.03;72.87
32243;BME280;18731;42.830;24.390;2024-02-23T01:34:14;94132.53;;;4.98;73.39
32243;BME280;18731;42.830;24.390;2024-02-23T01:36:39;94125.50;;;4.93;73.45
32243;BME280;18731;42.830;24.390;2024-02-23T01:39:05;94116.13;;;4.87;72.97
32243;BME280;18731;42.830;24.390;2024-02-23T01:41:30;94128.91;;;4.94;72.74
32243;BME280;18731;42.830;24.390;2024-02-23T01:43:57;94123.44;;;4.90;73.11
32243;BME280;18731;42.830;24.390;2024-02-23T01:46:23;94125.13;;;4.86;73.51
32243;BME280;18731;42.830;24.390;2024-02-23T01:48:48;94127.28;;;4.84;73.01
32243;BME280;18731;42.830;24.390;2024-02-23T01:51:14;94122.97;;;4.88;72.79
32243;BME280;18731;42.830;24.390;2024-02-23T01:53:40;94126.94;;;4.77;73.64
32243;BME280;18731;42.830;24.390;2024-02-23T01:56:06;94128.66;;;4.81;73.46
32243;BME280;18731;42.830;24.390;2024-02-23T01:58:33;94120.19;;;4.71;75.24
32243;BME280;18731;42.830;24.390;2024-02-23T02:01:00;94124.03;;;4.65;74.64
32243;BME280;18731;42.830;24.390;2024-02-23T02:03:26;94116.94;;;4.74;74.11
32243;BME280;18731;42.830;24.390;2024-02-23T02:05:53;94123.38;;;4.81;74.26
32243;BME280;18731;42.830;24.390;2024-02-23T02:08:20;94123.81;;;4.75;73.54
32243;BME280;18731;42.830;24.390;2024-02-23T02:10:46;94118.16;;;4.68;73.53
32243;BME280;18731;42.830;24.390;2024-02-23T02:13:12;94125.59;;;4.66;73.52
32243;BME280;18731;42.830;24.390;2024-02-23T02:15:37;94120.50;;;4.69;72.92
32243;BME280;18731;42.830;24.390;2024-02-23T02:18:03;94110.03;;;4.64;73.04
32243;BME280;18731;42.830;24.390;2024-02-23T02:20:32;94125.81;;;4.56;73.53
32243;BME280;18731;42.830;24.390;2024-02-23T02:22:59;94135.91;;;4.53;73.62
32243;BME280;18731;42.830;24.390;2024-02-23T02:25:24;94136.09;;;4.57;73.88
32243;BME280;18731;42.830;24.390;2024-02-23T02:27:50;94137.53;;;4.63;73.21
32243;BME280;18731;42.830;24.390;2024-02-23T02:30:16;94134.25;;;4.58;73.06
32243;BME280;18731;42.830;24.390;2024-02-23T02:32:41;94137.69;;;4.44;73.44
32243;BME280;18731;42.830;24.390;2024-02-23T02:35:07;94131.63;;;4.44;73.44
32243;BME280;18731;42.830;24.390;2024-02-23T02:37:32;94088.97;;;4.01;74.32
32243;BME280;18731;42.830;24.390;2024-02-23T02:39:58;94138.03;;;4.29;74.52
32243;BME280;18731;42.830;24.390;2024-02-23T02:42:24;94136.94;;;4.30;74.14
32243;BME280;18731;42.830;24.390;2024-02-23T02:44:49;94148.19;;;4.36;73.60
32243;BME280;18731;42.830;24.390;2024-02-23T02:47:14;94144.28;;;4.33;73.65
32243;BME280;18731;42.830;24.390;2024-02-23T02:49:40;94142.81;;;4.27;73.87
32243;BME280;18731;42.830;24.390;2024-02-23T02:52:06;94147.31;;;4.27;74.03
32243;BME280;18731;42.830;24.390;2024-02-23T02:54:33;94113.09;;;4.08;74.36
32243;BME280;18731;42.830;24.390;2024-02-23T02:56:59;94138.03;;;4.29;74.16
32243;BME280;18731;42.830;24.390;2024-02-23T02:59:24;94128.84;;;4.13;73.93
32243;BME280;18731;42.830;24.390;2024-02-23T03:01:50;94144.00;;;4.21;73.61
32243;BME280;18731;42.830;24.390;2024-02-23T03:04:15;94146.75;;;4.16;73.58
32243;BME280;18731;42.830;24.390;2024-02-23T03:06:41;94145.97;;;4.15;73.43
32243;BME280;18731;42.830;24.390;2024-02-23T03:09:07;94147.34;;;4.13;74.27
32243;BME280;18731;42.830;24.390;2024-02-23T03:11:33;94142.56;;;4.01;75.10
32243;BME280;18731;42.830;24.390;2024-02-23T03:13:58;94141.69;;;3.92;75.28
32243;BME280;18731;42.830;24.390;2024-02-23T03:16:24;94142.06;;;3.85;75.55
32243;BME280;18731;42.830;24.390;2024-02-23T03:18:51;94143.25;;;3.79;75.70
32243;BME280;18731;42.830;24.390;2024-02-23T03:21:17;94148.44;;;3.84;75.54
32243;BME280;18731;42.830;24.390;2024-02-23T03:23:43;94138.56;;;3.90;75.01
32243;BME280;18731;42.830;24.390;2024-02-23T03:26:08;94110.31;;;3.63;74.83
32243;BME280;18731;42.830;24.390;2024-02-23T03:28:34;94127.50;;;3.74;74.54
32243;BME280;18731;42.830;24.390;2024-02-23T03:31:02;94154.78;;;3.83;74.00
32243;BME280;18731;42.830;24.390;2024-02-23T03:33:28;94153.22;;;3.82;73.87
32243;BME280;18731;42.830;24.390;2024-02-23T03:35:53;94145.09;;;3.79;73.79
32243;BME280;18731;42.830;24.390;2024-02-23T03:38:20;94147.66;;;3.70;73.68
32243;BME280;18731;42.830;24.390;2024-02-23T03:40:46;94155.75;;;3.60;74.35
32243;BME280;18731;42.830;24.390;2024-02-23T03:43:11;94148.69;;;3.42;75.14
32243;BME280;18731;42.830;24.390;2024-02-23T03:45:37;94153.75;;;3.38;75.38
32243;BME280;18731;42.830;24.390;2024-02-23T03:48:03;94140.94;;;3.32;75.24
32243;BME280;18731;42.830;24.390;2024-02-23T03:50:30;94153.28;;;3.36;74.98
32243;BME280;18731;42.830;24.390;2024-02-23T03:52:55;94147.88;;;3.28;76.00
32243;BME280;18731;42.830;24.390;2024-02-23T03:55:21;94153.56;;;3.35;75.58
32243;BME280;18731;42.830;24.390;2024-02-23T03:57:47;94148.50;;;3.38;74.99
32243;BME280;18731;42.830;24.390;2024-02-23T04:00:13;94150.34;;;3.38;74.60
32243;BME280;18731;42.830;24.390;2024-02-23T04:02:39;94153.19;;;3.41;74.09
32243;BME280;18731;42.830;24.390;2024-02-23T04:05:05;94152.47;;;3.22;74.99
32243;BME280;18731;42.830;24.390;2024-02-23T04:07:30;94156.28;;;3.30;75.30
32243;BME280;18731;42.830;24.390;2024-02-23T04:09:56;94166.47;;;3.04;75.82
32243;BME280;18731;42.830;24.390;2024-02-23T04:12:22;94159.25;;;3.09;75.93
32243;BME280;18731;42.830;24.390;2024-02-23T04:14:47;94169.81;;;3.09;74.81
32243;BME280;18731;42.830;24.390;2024-02-23T04:17:13;94161.91;;;3.09;75.17
32243;BME280;18731;42.830;24.390;2024-02-23T04:19:40;94166.47;;;3.04;75.19
32243;BME280;18731;42.830;24.390;2024-02-23T04:22:06;94166.09;;;3.10;74.94
32243;BME280;18731;42.830;24.390;2024-02-23T04:24:39;94167.66;;;3.11;75.43
32243;BME280;18731;42.830;24.390;2024-02-23T04:27:05;94167.25;;;3.04;75.65
32243;BME280;18731;42.830;24.390;2024-02-23T04:29:31;94164.19;;;2.97;74.88
32243;BME280;18731;42.830;24.390;2024-02-23T04:31:58;94160.78;;;2.97;75.58
32243;BME280;18731;42.830;24.390;2024-02-23T04:34:23;94162.94;;;2.76;76.14
32243;BME280;18731;42.830;24.390;2024-02-23T04:36:49;94139.50;;;2.55;76.71
32243;BME280;18731;42.830;24.390;2024-02-23T04:39:14;94157.81;;;2.66;76.49
32243;BME280;18731;42.830;24.390;2024-02-23T04:41:40;94165.56;;;2.76;76.15
32243;BME280;18731;42.830;24.390;2024-02-23T04:44:05;94161.31;;;2.80;75.94
32243;BME280;18731;42.830;24.390;2024-02-23T04:46:31;94167.72;;;2.74;75.93
32243;BME280;18731;42.830;24.390;2024-02-23T04:48:59;94167.50;;;2.70;75.80
32243;BME280;18731;42.830;24.390;2024-02-23T04:51:25;94169.06;;;2.71;75.92
32243;BME280;18731;42.830;24.390;2024-02-23T04:53:51;94166.56;;;2.80;75.81
32243;BME280;18731;42.830;24.390;2024-02-23T04:56:16;94171.84;;;2.61;75.76
32243;BME280;18731;42.830;24.390;2024-02-23T04:58:43;94174.69;;;2.65;76.01
32243;BME280;18731;42.830;24.390;2024-02-23T05:01:09;94171.00;;;2.66;75.64
32243;BME280;18731;42.830;24.390;2024-02-23T05:03:34;94141.78;;;2.43;75.64
32243;BME280;18731;42.830;24.390;2024-02-23T05:06:00;94180.09;;;2.54;76.60
32243;BME280;18731;42.830;24.390;2024-02-23T05:08:25;94189.06;;;2.53;76.91
32243;BME280;18731;42.830;24.390;2024-02-23T05:10:52;94185.91;;;2.51;76.18
32243;BME280;18731;42.830;24.390;2024-02-23T05:13:18;94184.06;;;2.33;77.66
32243;BME280;18731;42.830;24.390;2024-02-23T05:15:44;94184.28;;;2.37;77.71
32243;BME280;18731;42.830;24.390;2024-02-23T05:18:09;94194.31;;;2.53;77.51
32243;BME280;18731;42.830;24.390;2024-02-23T05:20:35;94190.63;;;2.54;76.16
32243;BME280;18731;42.830;24.390;2024-02-23T05:23:00;94187.91;;;2.59;75.59
32243;BME280;18731;42.830;24.390;2024-02-23T05:25:26;94188.44;;;2.62;76.18
32243;BME280;18731;42.830;24.390;2024-02-23T05:27:52;94179.47;;;2.63;76.36
32243;BME280;18731;42.830;24.390;2024-02-23T05:30:17;94183.56;;;2.50;75.96
32243;BME280;18731;42.830;24.390;2024-02-23T05:32:43;94180.78;;;2.41;76.81
32243;BME280;18731;42.830;24.390;2024-02-23T05:35:09;94195.88;;;2.54;76.71
32243;BME280;18731;42.830;24.390;2024-02-23T05:37:35;94191.41;;;2.55;76.85
32243;BME280;18731;42.830;24.390;2024-02-23T05:40:03;94196.47;;;2.51;76.48
32243;BME280;18731;42.830;24.390;2024-02-23T05:42:32;94201.38;;;2.58;76.51
32243;BME280;18731;42.830;24.390;2024-02-23T05:44:57;94190.81;;;2.39;76.75
32243;BME280;18731;42.830;24.390;2024-02-23T05:47:23;94193.09;;;2.46;76.21
32243;BME280;18731;42.830;24.390;2024-02-23T05:49:50;94177.09;;;2.42;76.33
32243;BME280;18731;42.830;24.390;2024-02-23T05:52:16;94198.88;;;2.48;77.03
32243;BME280;18731;42.830;24.390;2024-02-23T05:54:41;94200.72;;;2.47;76.63
32243;BME280;18731;42.830;24.390;2024-02-23T05:57:07;94164.34;;;2.31;76.39
32243;BME280;18731;42.830;24.390;2024-02-23T05:59:32;94204.25;;;2.62;76.76
32243;BME280;18731;42.830;24.390;2024-02-23T06:01:58;94205.59;;;2.78;76.64
32243;BME280;18731;42.830;24.390;2024-02-23T06:04:24;94205.59;;;2.78;76.97
32243;BME280;18731;42.830;24.390;2024-02-23T06:06:49;94208.56;;;3.09;76.18
32243;BME280;18731;42.830;24.390;2024-02-23T06:09:15;94215.22;;;3.39;75.73
32243;BME280;18731;42.830;24.390;2024-02-23T06:11:43;94219.97;;;3.69;74.00
32243;BME280;18731;42.830;24.390;2024-02-23T06:14:08;94202.78;;;3.85;73.07
32243;BME280;18731;42.830;24.390;2024-02-23T06:16:34;94220.03;;;4.24;71.91
32243;BME280;18731;42.830;24.390;2024-02-23T06:18:59;94219.50;;;4.49;69.82
32243;BME280;18731;42.830;24.390;2024-02-23T06:21:25;94223.78;;;4.73;69.11
32243;BME280;18731;42.830;24.390;2024-02-23T06:23:51;94217.94;;;4.98;69.08
32243;BME280;18731;42.830;24.390;2024-02-23T06:26:16;94224.75;;;5.13;68.05
32243;BME280;18731;42.830;24.390;2024-02-23T06:28:42;94226.16;;;4.97;67.83
32243;BME280;18731;42.830;24.390;2024-02-23T06:31:08;94223.75;;;5.23;67.98
32243;BME280;18731;42.830;24.390;2024-02-23T06:33:35;94224.00;;;5.57;67.39
32243;BME280;18731;42.830;24.390;2024-02-23T06:36:00;94225.44;;;5.63;66.84
32243;BME280;18731;42.830;24.390;2024-02-23T06:38:26;94226.50;;;5.62;65.90
32243;BME280;18731;42.830;24.390;2024-02-23T06:40:52;94219.16;;;5.81;65.90
32243;BME280;18731;42.830;24.390;2024-02-23T06:43:18;94219.09;;;5.95;65.49
32243;BME280;18731;42.830;24.390;2024-02-23T06:45:44;94218.41;;;6.21;64.54
32243;BME280;18731;42.830;24.390;2024-02-23T06:48:09;94216.75;;;6.42;63.55
32243;BME280;18731;42.830;24.390;2024-02-23T06:50:35;94221.19;;;6.64;62.68
32243;BME280;18731;42.830;24.390;2024-02-23T06:53:01;94223.72;;;6.95;62.38
32243;BME280;18731;42.830;24.390;2024-02-23T06:55:27;94220.31;;;7.20;61.37
32243;BME280;18731;42.830;24.390;2024-02-23T06:57:54;94216.09;;;7.28;60.41
32243;BME280;18731;42.830;24.390;2024-02-23T07:00:20;94204.81;;;7.48;60.01
32243;BME280;18731;42.830;24.390;2024-02-23T07:02:47;94216.81;;;7.71;59.48
32243;BME280;18731;42.830;24.390;2024-02-23T07:05:12;94195.19;;;7.99;58.73
32243;BME280;18731;42.830;24.390;2024-02-23T07:07:39;94190.97;;;7.98;58.79
32243;BME280;18731;42.830;24.390;2024-02-23T07:10:06;94198.72;;;8.20;57.78
32243;BME280;18731;42.830;24.390;2024-02-23T07:12:32;94205.53;;;8.38;57.57
32243;BME280;18731;42.830;24.390;2024-02-23T07:14:57;94206.63;;;8.67;57.04
32243;BME280;18731;42.830;24.390;2024-02-23T07:17:23;94207.38;;;8.97;56.46
32243;BME280;18731;42.830;24.390;2024-02-23T07:19:49;94189.78;;;9.25;55.96
32243;BME280;18731;42.830;24.390;2024-02-23T07:22:17;94199.09;;;9.52;55.37
32243;BME280;18731;42.830;24.390;2024-02-23T07:24:46;94199.53;;;9.87;54.11
32243;BME280;18731;42.830;24.390;2024-02-23T07:27:11;94195.69;;;10.09;53.38
32243;BME280;18731;42.830;24.390;2024-02-23T07:29:37;94190.19;;;10.39;52.68
32243;BME280;18731;42.830;24.390;2024-02-23T07:32:02;94175.31;;;10.62;51.99
32243;BME280;18731;42.830;24.390;2024-02-23T07:34:29;94174.81;;;10.97;52.69
32243;BME280;18731;42.830;24.390;2024-02-23T07:36:55;94180.56;;;11.11;50.69
32243;BME280;18731;42.830;24.390;2024-02-23T07:39:20;94185.50;;;11.37;49.30
32243;BME280;18731;42.830;24.390;2024-02-23T07:41:47;94175.22;;;11.79;50.81
32243;BME280;18731;42.830;24.390;2024-02-23T07:44:12;94162.31;;;12.12;48.77
32243;BME280;18731;42.830;24.390;2024-02-23T07:46:38;94155.91;;;12.48;48.08
32243;BME280;18731;42.830;24.390;2024-02-23T07:49:04;94149.88;;;12.86;47.21
32243;BME280;18731;42.830;24.390;2024-02-23T07:51:31;94160.25;;;13.23;46.78
32243;BME280;18731;42.830;24.390;2024-02-23T07:53:57;94161.25;;;13.54;45.79
32243;BME280;18731;42.830;24.390;2024-02-23T07:56:22;94161.91;;;13.89;44.32
32243;BME280;18731;42.830;24.390;2024-02-23T07:58:48;94156.13;;;14.10;43.20
32243;BME280;18731;42.830;24.390;2024-02-23T08:01:16;94152.38;;;14.14;42.24
32243;BME280;18731;42.830;24.390;2024-02-23T08:03:42;94152.69;;;14.09;41.20
32243;BME280;18731;42.830;24.390;2024-02-23T08:06:08;94148.75;;;14.49;44.93
32243;BME280;18731;42.830;24.390;2024-02-23T08:08:33;94150.31;;;14.76;43.61
32243;BME280;18731;42.830;24.390;2024-02-23T08:11:02;94123.75;;;14.71;40.68
32243;BME280;18731;42.830;24.390;2024-02-23T08:13:28;94150.00;;;14.32;38.13
32243;BME280;18731;42.830;24.390;2024-02-23T08:15:54;94139.34;;;14.89;40.69
32243;BME280;18731;42.830;24.390;2024-02-23T08:18:19;94127.28;;;15.35;43.93
32243;BME280;18731;42.830;24.390;2024-02-23T08:20:45;94139.84;;;15.58;40.53
32243;BME280;18731;42.830;24.390;2024-02-23T08:23:10;94144.91;;;15.33;40.33
32243;BME280;18731;42.830;24.390;2024-02-23T08:25:36;94145.97;;;15.25;38.77
32243;BME280;18731;42.830;24.390;2024-02-23T08:28:02;94132.16;;;15.26;37.08
32243;BME280;18731;42.830;24.390;2024-02-23T08:30:27;94126.34;;;15.21;38.29
32243;BME280;18731;42.830;24.390;2024-02-23T08:32:53;94134.25;;;15.10;38.37
32243;BME280;18731;42.830;24.390;2024-02-23T08:35:18;94137.13;;;15.24;37.78
32243;BME280;18731;42.830;24.390;2024-02-23T08:37:44;94144.63;;;15.41;38.16
32243;BME280;18731;42.830;24.390;2024-02-23T08:40:10;94137.88;;;15.55;38.38
32243;BME280;18731;42.830;24.390;2024-02-23T08:42:36;94131.09;;;15.61;38.50
32243;BME280;18731;42.830;24.390;2024-02-23T08:45:02;94127.72;;;16.08;38.23
32243;BME280;18731;42.830;24.390;2024-02-23T08:47:27;94127.75;;;16.59;35.48
32243;BME280;18731;42.830;24.390;2024-02-23T08:49:57;94128.13;;;16.61;34.64
32243;BME280;18731;42.830;24.390;2024-02-23T08:52:23;94137.09;;;16.73;35.49
32243;BME280;18731;42.830;24.390;2024-02-23T08:54:49;94100.25;;;16.94;36.71
32243;BME280;18731;42.830;24.390;2024-02-23T08:57:14;94132.97;;;17.69;35.27
32243;BME280;18731;42.830;24.390;2024-02-23T08:59:45;94131.16;;;18.16;32.82
32243;BME280;18731;42.830;24.390;2024-02-23T09:02:11;94110.72;;;18.29;34.25
32243;BME280;18731;42.830;24.390;2024-02-23T09:04:36;94137.78;;;18.72;33.57
32243;BME280;18731;42.830;24.390;2024-02-23T09:07:02;94102.25;;;18.70;31.04
32243;BME280;18731;42.830;24.390;2024-02-23T09:09:27;94136.13;;;19.20;32.64
32243;BME280;18731;42.830;24.390;2024-02-23T09:11:53;94133.72;;;19.51;30.48
32243;BME280;18731;42.830;24.390;2024-02-23T09:14:19;94135.09;;;19.95;30.49
32243;BME280;18731;42.830;24.390;2024-02-23T09:16:44;94142.59;;;20.32;30.65
32243;BME280;18731;42.830;24.390;2024-02-23T09:19:11;94145.56;;;20.55;28.34
32243;BME280;18731;42.830;24.390;2024-02-23T09:21:37;94151.91;;;20.86;29.99
32243;BME280;18731;42.830;24.390;2024-02-23T09:24:03;94145.91;;;20.61;27.45
32243;BME280;18731;42.830;24.390;2024-02-23T09:26:29;94137.13;;;20.91;26.80
32243;BME280;18731;42.830;24.390;2024-02-23T09:28:55;94140.72;;;20.80;27.80
32243;BME280;18731;42.830;24.390;2024-02-23T09:31:20;94133.69;;;20.31;26.96
32243;BME280;18731;42.830;24.390;2024-02-23T09:33:46;94145.09;;;20.64;27.45
32243;BME280;18731;42.830;24.390;2024-02-23T09:36:12;94139.16;;;20.83;27.67
32243;BME280;18731;42.830;24.390;2024-02-23T09:38:37;94138.25;;;20.48;28.21
32243;BME280;18731;42.830;24.390;2024-02-23T09:41:03;94154.59;;;20.34;28.07
32243;BME280;18731;42.830;24.390;2024-02-23T09:43:29;94142.72;;;20.10;27.14
32243;BME280;18731;42.830;24.390;2024-02-23T09:45:59;94138.84;;;20.15;28.37
32243;BME280;18731;42.830;24.390;2024-02-23T09:48:25;94134.59;;;20.14;28.53
32243;BME280;18731;42.830;24.390;2024-02-23T09:50:52;94135.22;;;20.39;27.52
32243;BME280;18731;42.830;24.390;2024-02-23T09:53:19;94129.50;;;20.23;28.20
32243;BME280;18731;42.830;24.390;2024-02-23T09:55:47;94139.03;;;20.45;28.48
32243;BME280;18731;42.830;24.390;2024-02-23T09:58:13;94129.25;;;20.59;28.36
32243;BME280;18731;42.830;24.390;2024-02-23T10:00:42;94131.91;;;20.66;28.67
32243;BME280;18731;42.830;24.390;2024-02-23T10:03:09;94127.28;;;21.07;28.80
32243;BME280;18731;42.830;24.390;2024-02-23T10:05:34;94129.59;;;21.46;28.50
32243;BME280;18731;42.830;24.390;2024-02-23T10:08:00;94120.38;;;21.71;26.60
32243;BME280;18731;42.830;24.390;2024-02-23T10:10:35;94124.97;;;22.08;28.10
32243;BME280;18731;42.830;24.390;2024-02-23T10:13:01;94092.72;;;22.10;26.19
32243;BME280;18731;42.830;24.390;2024-02-23T10:15:30;94127.53;;;22.45;27.72
32243;BME280;18731;42.830;24.390;2024-02-23T10:17:58;94130.75;;;22.10;25.39
32243;BME280;18731;42.830;24.390;2024-02-23T10:20:24;94116.97;;;21.94;27.14
32243;BME280;18731;42.830;24.390;2024-02-23T10:22:49;94119.38;;;22.19;25.34
32243;BME280;18731;42.830;24.390;2024-02-23T10:25:15;94099.31;;;22.36;27.36
32243;BME280;18731;42.830;24.390;2024-02-23T10:27:41;94132.44;;;22.54;25.06
32243;BME280;18731;42.830;24.390;2024-02-23T10:30:10;94125.47;;;22.53;26.23
32243;BME280;18731;42.830;24.390;2024-02-23T10:32:41;94116.94;;;21.97;26.19
32243;BME280;18731;42.830;24.390;2024-02-23T10:35:18;94121.94;;;22.02;26.70
32243;BME280;18731;42.830;24.390;2024-02-23T10:37:48;94108.47;;;22.22;26.94
32243;BME280;18731;42.830;24.390;2024-02-23T10:40:16;94100.34;;;21.61;26.30
32243;BME280;18731;42.830;24.390;2024-02-23T10:42:43;94089.47;;;21.61;26.97
32243;BME280;18731;42.830;24.390;2024-02-23T10:45:16;94090.06;;;21.76;27.02
32243;BME280;18731;42.830;24.390;2024-02-23T10:47:41;94111.00;;;22.33;26.38
32243;BME280;18731;42.830;24.390;2024-02-23T10:50:08;94112.28;;;22.52;25.73
32243;BME280;18731;42.830;24.390;2024-02-23T10:52:35;94119.00;;;22.43;24.76
32243;BME280;18731;42.830;24.390;2024-02-23T10:55:01;94101.50;;;22.44;25.72
32243;BME280;18731;42.830;24.390;2024-02-23T10:57:34;94082.56;;;22.14;26.18
32243;BME280;18731;42.830;24.390;2024-02-23T11:00:00;94101.56;;;22.41;25.50
32243;BME280;18731;42.830;24.390;2024-02-23T11:02:28;94108.91;;;22.44;26.72
32243;BME280;18731;42.830;24.390;2024-02-23T11:04:57;94103.50;;;22.40;25.09
32243;BME280;18731;42.830;24.390;2024-02-23T11:07:24;94097.03;;;22.07;26.17
32243;BME280;18731;42.830;24.390;2024-02-23T11:09:54;94103.97;;;22.35;26.53
32243;BME280;18731;42.830;24.390;2024-02-23T11:12:29;94103.25;;;22.82;24.71
32243;BME280;18731;42.830;24.390;2024-02-23T11:14:58;94073.31;;;22.35;24.96
32243;BME280;18731;42.830;24.390;2024-02-23T11:17:32;94091.34;;;22.72;25.65
32243;BME280;18731;42.830;24.390;2024-02-23T11:19:58;94083.06;;;22.56;25.39
32243;BME280;18731;42.830;24.390;2024-02-23T11:22:32;94086.03;;;22.88;25.14
32243;BME280;18731;42.830;24.390;2024-02-23T11:25:03;94098.22;;;22.80;24.41
32243;BME280;18731;42.830;24.390;2024-02-23T11:27:31;94095.00;;;22.38;25.20
32243;BME280;18731;42.830;24.390;2024-02-23T11:30:08;94082.25;;;22.82;25.96
32243;BME280;18731;42.830;24.390;2024-02-23T11:32:41;94053.31;;;22.92;25.31
32243;BME280;18731;42.830;24.390;2024-02-23T11:35:11;94083.72;;;23.30;25.65
32243;BME280;18731;42.830;24.390;2024-02-23T11:37:54;94079.13;;;23.66;24.59
32243;BME280;18731;42.830;24.390;2024-02-23T11:40:27;94074.22;;;23.38;25.06
32243;BME280;18731;42.830;24.390;2024-02-23T11:42:54;94076.16;;;23.61;25.86
32243;BME280;18731;42.830;24.390;2024-02-23T11:45:21;94060.22;;;23.59;25.33
32243;BME280;18731;42.830;24.390;2024-02-23T11:47:47;94067.41;;;23.69;24.86
32243;BME280;18731;42.830;24.390;2024-02-23T11:50:13;94069.09;;;23.99;24.39
32243;BME280;18731;42.830;24.390;2024-02-23T11:52:40;94067.47;;;24.02;23.66
32243;BME280;18731;42.830;24.390;2024-02-23T11:55:06;94068.44;;;23.76;22.70
32243;BME280;18731;42.830;24.390;2024-02-23T11:57:34;94055.72;;;23.49;24.31
32243;BME280;18731;42.830;24.390;2024-02-23T12:00:03;94068.13;;;22.91;23.81
32243;BME280;18731;42.830;24.390;2024-02-23T12:02:29;94066.47;;;23.17;25.12
32243;BME280;18731;42.830;24.390;2024-02-23T12:04:54;94077.50;;;22.63;23.55
32243;BME280;18731;42.830;24.390;2024-02-23T12:07:20;94080.91;;;21.93;24.53
32243;BME280;18731;42.830;24.390;2024-02-23T12:09:47;94051.78;;;22.21;25.62
32243;BME280;18731;42.830;24.390;2024-02-23T12:12:13;94079.91;;;22.10;23.89
32243;BME280;18731;42.830;24.390;2024-02-23T12:14:39;94056.34;;;21.73;26.17
32243;BME280;18731;42.830;24.390;2024-02-23T12:17:05;94059.09;;;21.70;24.82
32243;BME280;18731;42.830;24.390;2024-02-23T12:19:40;94031.34;;;22.12;26.58
32243;BME280;18731;42.830;24.390;2024-02-23T12:22:06;94041.81;;;22.37;25.79
32243;BME280;18731;42.830;24.390;2024-02-23T12:24:32;94060.75;;;22.18;24.54
32243;BME280;18731;42.830;24.390;2024-02-23T12:26:59;94058.19;;;22.57;23.82
32243;BME280;18731;42.830;24.390;2024-02-23T12:29:24;94058.97;;;22.81;24.23
32243;BME280;18731;42.830;24.390;2024-02-23T12:31:50;94064.44;;;23.21;23.99
32243;BME280;18731;42.830;24.390;2024-02-23T12:34:16;94021.00;;;23.33;23.33
32243;BME280;18731;42.830;24.390;2024-02-23T12:36:43;94027.94;;;23.94;23.72
32243;BME280;18731;42.830;24.390;2024-02-23T12:39:08;94056.09;;;24.56;23.57
32243;BME280;18731;42.830;24.390;2024-02-23T12:41:34;94042.75;;;24.90;22.96
32243;BME280;18731;42.830;24.390;2024-02-23T12:43:59;94009.81;;;24.97;22.32
32243;BME280;18731;42.830;24.390;2024-02-23T12:46:25;94029.81;;;25.36;21.69
32243;BME280;18731;42.830;24.390;2024-02-23T12:48:51;94026.19;;;25.68;22.46
32243;BME280;18731;42.830;24.390;2024-02-23T12:51:16;94033.78;;;26.02;21.54